createdAt,value
2019-04-14T00:02:38.203Z,9.00
2019-04-14T00:05:10.633Z,8.80
2019-04-14T00:07:40.604Z,8.90
2019-04-14T00:10:11.558Z,8.80
2019-04-14T00:12:42.620Z,8.80
2019-04-14T00:15:27.201Z,8.80
2019-04-14T00:17:47.869Z,8.80
2019-04-14T00:20:18.517Z,8.80
2019-04-14T00:22:49.430Z,8.80
2019-04-14T00:25:19.447Z,8.80
2019-04-14T00:27:52.108Z,8.90
2019-04-14T00:30:23.228Z,8.90
2019-04-14T00:32:59.506Z,8.90
2019-04-14T00:35:45.632Z,8.90
2019-04-14T00:38:19.495Z,8.90
2019-04-14T00:41:40.310Z,8.90
2019-04-14T00:44:07.881Z,8.90
2019-04-14T00:46:58.950Z,8.90
2019-04-14T00:49:28.991Z,8.90
2019-04-14T00:51:59.305Z,8.90
2019-04-14T00:54:28.666Z,8.90
2019-04-14T00:56:58.493Z,8.90
2019-04-14T00:59:28.951Z,8.90
2019-04-14T01:01:59.161Z,8.90
2019-04-14T01:04:29.385Z,8.80
2019-04-14T01:07:00.062Z,8.90
2019-04-14T01:09:30.435Z,8.90
2019-04-14T01:12:01.907Z,8.90
2019-04-14T01:14:31.957Z,8.90
2019-04-14T01:17:02.643Z,8.90
2019-04-14T01:19:32.986Z,8.90
2019-04-14T01:22:03.238Z,8.90
2019-04-14T01:24:33.572Z,8.90
2019-04-14T01:27:03.827Z,8.90
2019-04-14T01:29:34.078Z,8.90
2019-04-14T01:32:04.553Z,8.80
2019-04-14T01:34:36.913Z,8.80
2019-04-14T01:37:07.194Z,8.80
2019-04-14T01:39:37.203Z,8.80
2019-04-14T01:42:07.139Z,8.70
2019-04-14T01:44:37.315Z,8.70
2019-04-14T01:47:07.346Z,8.70
2019-04-14T01:49:37.641Z,8.80
2019-04-14T01:52:21.011Z,8.80
2019-04-14T01:55:00.421Z,8.80
2019-04-14T01:57:48.592Z,8.80
2019-04-14T02:01:04.241Z,8.80
2019-04-14T02:03:34.512Z,8.70
2019-04-14T02:06:04.801Z,8.60
2019-04-14T02:08:35.202Z,8.60
2019-04-14T02:11:05.196Z,8.60
2019-04-14T02:13:35.415Z,8.60
2019-04-14T02:16:15.109Z,8.60
2019-04-14T02:18:36.209Z,8.60
2019-04-14T02:21:06.446Z,8.50
2019-04-14T02:23:36.605Z,8.50
2019-04-14T02:26:06.807Z,8.60
2019-04-14T02:28:37.442Z,8.50
2019-04-14T02:31:17.178Z,8.50
2019-04-14T02:34:00.687Z,8.50
2019-04-14T02:39:06.086Z,8.50
2019-04-14T02:41:35.918Z,8.50
2019-04-14T02:49:04.212Z,8.50
2019-04-14T02:54:13.435Z,8.40
2019-04-14T02:56:43.688Z,8.50
2019-04-14T03:04:12.971Z,8.40
2019-04-14T03:06:42.583Z,8.40
2019-04-14T03:09:32.411Z,8.50
2019-04-14T03:11:51.963Z,8.50
2019-04-14T03:14:23.427Z,8.50
2019-04-14T03:22:59.158Z,8.40
2019-04-14T03:25:35.740Z,8.40
2019-04-14T03:28:31.880Z,8.40
2019-04-14T03:38:50.342Z,8.40
2019-04-14T03:41:23.770Z,8.40
2019-04-14T03:43:57.659Z,8.20
2019-04-14T03:46:27.419Z,8.20
2019-04-14T03:51:26.297Z,8.30
2019-04-14T03:53:48.741Z,8.40
2019-04-14T03:56:31.311Z,8.40
2019-04-14T03:59:00.512Z,8.40
2019-04-14T04:01:30.240Z,8.40
2019-04-14T04:04:00.690Z,8.40
2019-04-14T04:06:29.899Z,8.40
2019-04-14T04:08:59.656Z,8.40
2019-04-14T04:11:30.175Z,8.40
2019-04-14T04:14:00.613Z,8.40
2019-04-14T04:17:07.979Z,8.40
2019-04-14T04:20:02.555Z,8.40
2019-04-14T04:22:49.979Z,8.40
2019-04-14T04:25:24.752Z,8.40
2019-04-14T04:28:06.143Z,8.40
2019-04-14T04:30:50.259Z,8.20
2019-04-14T04:33:39.352Z,8.20
2019-04-14T04:36:20.373Z,8.30
2019-04-14T04:38:53.148Z,8.30
2019-04-14T04:41:23.265Z,8.30
2019-04-14T04:43:53.823Z,8.30
2019-04-14T04:46:22.964Z,8.30
2019-04-14T04:49:03.196Z,8.30
2019-04-14T04:51:24.574Z,8.40
2019-04-14T04:53:54.872Z,8.40
2019-04-14T04:56:25.463Z,8.30
2019-04-14T04:58:54.570Z,8.30
2019-04-14T05:01:23.863Z,8.30
2019-04-14T05:03:53.590Z,8.30
2019-04-14T05:07:07.636Z,8.30
2019-04-14T05:09:55.587Z,8.30
2019-04-14T05:12:47.833Z,8.40
2019-04-14T05:15:45.042Z,8.40
2019-04-14T05:18:23.094Z,8.40
2019-04-14T05:20:53.235Z,8.30
2019-04-14T05:23:23.491Z,8.30
2019-04-14T05:25:53.875Z,8.40
2019-04-14T05:28:24.412Z,8.40
2019-04-14T05:30:54.708Z,8.40
2019-04-14T05:33:25.048Z,8.40
2019-04-14T05:35:55.702Z,8.50
2019-04-14T05:38:31.833Z,8.40
2019-04-14T05:40:58.792Z,8.40
2019-04-14T05:43:38.679Z,8.40
2019-04-14T05:45:59.228Z,8.30
2019-04-14T05:48:29.276Z,8.30
2019-04-14T05:50:59.838Z,8.30
2019-04-14T05:53:29.059Z,8.30
2019-04-14T05:56:01.474Z,8.30
2019-04-14T05:58:31.703Z,8.30
2019-04-14T06:01:02.437Z,8.30
2019-04-14T06:03:34.262Z,8.40
2019-04-14T06:06:03.525Z,8.40
2019-04-14T06:08:32.782Z,8.40
2019-04-14T06:11:02.213Z,8.40
2019-04-14T06:13:33.030Z,8.40
2019-04-14T06:16:01.985Z,8.40
2019-04-14T06:18:31.162Z,8.40
2019-04-14T06:21:00.303Z,8.40
2019-04-14T06:23:29.384Z,8.50
2019-04-14T06:25:59.303Z,8.50
2019-04-14T06:28:28.716Z,8.50
2019-04-14T06:31:10.596Z,8.50
2019-04-14T06:33:59.098Z,8.60
2019-04-14T06:36:52.774Z,8.60
2019-04-14T06:39:25.612Z,8.60
2019-04-14T06:41:55.029Z,8.40
2019-04-14T06:44:24.118Z,8.40
2019-04-14T06:46:59.279Z,8.40
2019-04-14T06:49:30.262Z,8.50
2019-04-14T06:52:03.116Z,8.50
2019-04-14T06:54:32.791Z,8.50
2019-04-14T06:57:01.973Z,8.60
2019-04-14T06:59:30.965Z,8.60
2019-04-14T07:02:01.924Z,8.70
2019-04-14T07:04:34.131Z,8.70
2019-04-14T07:07:03.555Z,8.70
2019-04-14T07:09:32.738Z,8.70
2019-04-14T07:12:03.152Z,8.60
2019-04-14T07:14:32.555Z,8.70
2019-04-14T07:17:01.952Z,8.60
2019-04-14T07:19:31.777Z,8.60
2019-04-14T07:22:01.589Z,8.60
2019-04-14T07:24:30.877Z,8.60
2019-04-14T07:27:00.258Z,8.60
2019-04-14T07:29:36.515Z,8.60
2019-04-14T07:32:23.187Z,8.60
2019-04-14T07:35:00.338Z,8.60
2019-04-14T07:37:47.422Z,8.70
2019-04-14T07:40:32.390Z,8.70
2019-04-14T07:43:06.789Z,8.70
2019-04-14T07:45:53.187Z,8.70
2019-04-14T07:48:36.026Z,8.70
2019-04-14T07:51:23.729Z,8.80
2019-04-14T07:54:02.191Z,8.90
2019-04-14T07:57:00.012Z,8.90
2019-04-14T07:59:33.332Z,8.90
2019-04-14T08:02:09.230Z,8.90
2019-04-14T08:04:56.299Z,8.90
2019-04-14T08:07:25.984Z,8.90
2019-04-14T08:10:28.625Z,8.90
2019-04-14T08:13:02.812Z,9.00
2019-04-14T08:15:34.639Z,9.00
2019-04-14T08:18:05.932Z,9.10
2019-04-14T08:20:36.157Z,9.10
2019-04-14T08:23:05.932Z,9.10
2019-04-14T08:25:35.978Z,9.00
2019-04-14T08:28:06.346Z,9.10
2019-04-14T08:30:35.620Z,9.10
2019-04-14T08:33:04.991Z,9.00
2019-04-14T08:35:36.117Z,9.00
2019-04-14T08:38:06.475Z,9.00
2019-04-14T08:40:35.711Z,9.00
2019-04-14T08:43:21.506Z,9.00
2019-04-14T08:46:14.239Z,9.10
2019-04-14T08:49:08.895Z,9.20
2019-04-14T08:51:52.378Z,9.20
2019-04-14T08:54:46.032Z,9.20
2019-04-14T08:57:22.667Z,9.10
2019-04-14T09:00:06.558Z,9.10
2019-04-14T09:02:52.771Z,9.10
2019-04-14T09:05:44.805Z,9.10
2019-04-14T09:08:36.177Z,9.10
2019-04-14T09:11:06.881Z,9.10
2019-04-14T09:13:36.646Z,9.10
2019-04-14T09:16:08.568Z,9.10
2019-04-14T09:18:38.664Z,9.10
2019-04-14T09:21:08.123Z,9.20
2019-04-14T09:23:42.417Z,9.30
2019-04-14T09:26:13.052Z,9.30
2019-04-14T09:28:46.928Z,9.30
2019-04-14T09:31:17.411Z,9.30
2019-04-14T09:33:56.485Z,9.30
2019-04-14T09:36:27.969Z,9.30
2019-04-14T09:38:57.039Z,9.30
2019-04-14T09:41:26.442Z,9.30
2019-04-14T09:43:55.871Z,9.40
2019-04-14T09:46:25.028Z,9.40
2019-04-14T09:48:54.362Z,9.40
2019-04-14T09:51:23.850Z,9.50
2019-04-14T09:53:53.870Z,9.50
2019-04-14T09:56:23.155Z,9.60
2019-04-14T09:58:52.702Z,9.60
2019-04-14T10:01:23.834Z,9.50
2019-04-14T10:03:52.969Z,9.50
2019-04-14T10:06:22.111Z,9.50
2019-04-14T10:08:52.490Z,9.50
2019-04-14T10:11:21.705Z,9.50
2019-04-14T10:13:51.890Z,9.50
2019-04-14T10:16:21.023Z,9.60
2019-04-14T10:18:50.012Z,9.60
2019-04-14T10:21:19.288Z,9.60
2019-04-14T10:23:48.403Z,9.50
2019-04-14T10:26:27.831Z,9.60
2019-04-14T10:28:57.283Z,9.60
2019-04-14T10:31:26.456Z,9.60
2019-04-14T10:33:56.030Z,9.60
2019-04-14T10:36:25.148Z,9.60
2019-04-14T10:38:54.626Z,9.60
2019-04-14T10:41:23.809Z,9.60
2019-04-14T10:43:53.205Z,9.60
2019-04-14T10:46:22.733Z,9.60
2019-04-14T10:48:52.633Z,9.70
2019-04-14T10:51:29.913Z,9.70
2019-04-14T10:53:52.920Z,9.70
2019-04-14T10:56:22.045Z,9.70
2019-04-14T10:58:51.413Z,9.70
2019-04-14T11:01:20.809Z,9.70
2019-04-14T11:03:49.916Z,9.70
2019-04-14T11:06:28.482Z,9.80
2019-04-14T11:08:57.621Z,9.80
2019-04-14T11:11:27.013Z,9.80
2019-04-14T11:13:56.098Z,9.80
2019-04-14T11:16:26.782Z,9.80
2019-04-14T11:18:56.019Z,9.70
2019-04-14T11:21:25.615Z,9.80
2019-04-14T11:23:56.599Z,9.80
2019-04-14T11:26:25.964Z,9.80
2019-04-14T11:28:57.445Z,9.80
2019-04-14T11:31:59.999Z,9.70
2019-04-14T11:34:41.319Z,9.80
2019-04-14T11:37:29.313Z,9.70
2019-04-14T11:39:58.503Z,9.80
2019-04-14T11:42:28.046Z,9.80
2019-04-14T11:44:57.881Z,9.90
2019-04-14T11:47:28.640Z,9.90
2019-04-14T11:49:57.883Z,10.00
2019-04-14T11:52:28.606Z,10.10
2019-04-14T11:54:57.567Z,10.10
2019-04-14T11:57:27.274Z,10.20
2019-04-14T12:00:14.226Z,10.30
2019-04-14T12:03:05.597Z,10.40
2019-04-14T12:06:03.086Z,10.50
2019-04-14T12:08:57.162Z,10.50
2019-04-14T12:11:26.850Z,10.60
2019-04-14T12:13:55.894Z,10.60
2019-04-14T12:16:30.326Z,10.60
2019-04-14T12:19:00.176Z,10.70
2019-04-14T12:21:29.764Z,10.90
2019-04-14T12:23:59.387Z,11.00
2019-04-14T12:26:28.719Z,11.00
2019-04-14T12:29:01.498Z,11.00
2019-04-14T12:31:30.880Z,11.00
2019-04-14T12:34:02.354Z,11.10
2019-04-14T12:36:31.559Z,11.10
2019-04-14T12:39:01.096Z,11.20
2019-04-14T12:41:37.765Z,11.40
2019-04-14T12:44:41.411Z,11.50
2019-04-14T12:47:30.244Z,11.40
2019-04-14T12:50:00.253Z,11.40
2019-04-14T12:52:29.512Z,11.50
2019-04-14T12:54:59.609Z,11.50
2019-04-14T12:57:39.017Z,11.60
2019-04-14T13:00:18.341Z,11.60
2019-04-14T13:02:51.189Z,11.70
2019-04-14T13:05:23.194Z,11.80
2019-04-14T13:07:52.406Z,11.90
2019-04-14T13:10:21.650Z,12.00
2019-04-14T13:12:58.506Z,12.00
2019-04-14T13:15:27.763Z,12.10
2019-04-14T13:17:57.277Z,12.10
2019-04-14T13:20:28.969Z,12.20
2019-04-14T13:23:00.842Z,12.20
2019-04-14T13:25:30.434Z,12.20
2019-04-14T13:28:00.423Z,12.20
2019-04-14T13:30:33.913Z,12.30
2019-04-14T13:33:02.981Z,12.30
2019-04-14T13:35:32.146Z,12.50
2019-04-14T13:38:07.856Z,12.60
2019-04-14T13:40:37.120Z,12.70
2019-04-14T13:43:07.177Z,12.70
2019-04-14T13:45:36.544Z,12.80
2019-04-14T13:48:06.577Z,12.70
2019-04-14T13:50:39.395Z,12.70
2019-04-14T13:53:09.448Z,12.60
2019-04-14T13:55:54.254Z,12.50
2019-04-14T13:58:23.856Z,12.50
2019-04-14T14:00:53.196Z,12.40
2019-04-14T14:03:24.568Z,12.50
2019-04-14T14:05:54.150Z,12.60
2019-04-14T14:08:23.482Z,12.60
2019-04-14T14:11:01.256Z,12.60
2019-04-14T14:13:36.658Z,12.60
2019-04-14T14:16:17.572Z,12.50
2019-04-14T14:19:00.012Z,12.50
2019-04-14T14:21:38.877Z,12.50
2019-04-14T14:24:25.884Z,12.50
2019-04-14T14:26:55.368Z,12.50
2019-04-14T14:29:26.057Z,12.50
2019-04-14T14:31:56.175Z,12.40
2019-04-14T14:34:25.697Z,12.40
2019-04-14T14:36:56.507Z,12.40
2019-04-14T14:39:25.838Z,12.40
2019-04-14T14:41:57.969Z,12.20
2019-04-14T14:44:32.971Z,12.30
2019-04-14T14:47:14.224Z,12.30
2019-04-14T14:50:09.086Z,12.30
2019-04-14T14:52:49.293Z,12.40
2019-04-14T14:55:18.781Z,12.40
2019-04-14T14:57:48.353Z,12.40
2019-04-14T15:00:26.922Z,12.40
2019-04-14T15:02:59.150Z,12.40
2019-04-14T15:05:28.388Z,12.50
2019-04-14T15:07:57.749Z,12.50
2019-04-14T15:10:27.163Z,12.50
2019-04-14T15:12:56.385Z,12.50
2019-04-14T15:15:25.592Z,12.50
2019-04-14T15:17:54.832Z,12.50
2019-04-14T15:20:24.689Z,12.50
2019-04-14T15:22:54.090Z,12.50
2019-04-14T15:25:24.100Z,12.50
2019-04-14T15:27:53.566Z,12.40
2019-04-14T15:30:31.160Z,12.40
2019-04-14T15:33:00.444Z,12.40
2019-04-14T15:35:29.905Z,12.40
2019-04-14T15:38:00.138Z,12.30
2019-04-14T15:40:29.598Z,12.30
2019-04-14T15:42:59.432Z,12.30
2019-04-14T15:45:29.166Z,12.30
2019-04-14T15:47:58.597Z,12.30
2019-04-14T15:50:28.472Z,12.20
2019-04-14T15:52:57.791Z,12.20
2019-04-14T15:55:29.280Z,12.20
2019-04-14T15:58:16.818Z,12.20
2019-04-14T16:01:03.857Z,12.30
2019-04-14T16:03:40.533Z,12.30
2019-04-14T16:06:34.822Z,12.20
2019-04-14T16:09:17.844Z,12.20
2019-04-14T16:12:01.198Z,12.20
2019-04-14T16:14:45.829Z,12.20
2019-04-14T16:17:32.650Z,12.10
2019-04-14T16:20:07.596Z,12.10
2019-04-14T16:22:39.009Z,12.10
2019-04-14T16:25:08.542Z,12.10
2019-04-14T16:27:49.518Z,12.20
2019-04-14T16:30:36.954Z,12.20
2019-04-14T16:33:32.166Z,12.20
2019-04-14T16:36:01.522Z,12.20
2019-04-14T16:38:30.953Z,12.20
2019-04-14T16:41:02.834Z,12.20
2019-04-14T16:43:33.216Z,12.20
2019-04-14T16:46:02.730Z,12.20
2019-04-14T16:48:32.051Z,12.20
2019-04-14T16:51:02.071Z,12.20
2019-04-14T16:53:35.334Z,12.20
2019-04-14T16:56:45.031Z,12.20
2019-04-14T16:59:16.407Z,12.10
2019-04-14T17:01:54.381Z,12.10
2019-04-14T17:04:26.794Z,12.10
2019-04-14T17:06:57.194Z,12.10
2019-04-14T17:09:27.129Z,12.10
2019-04-14T17:12:06.504Z,12.10
2019-04-14T17:14:47.292Z,12.10
2019-04-14T17:17:40.508Z,12.10
2019-04-14T17:20:38.278Z,12.10
2019-04-14T17:23:29.488Z,12.10
2019-04-14T17:26:04.506Z,12.10
2019-04-14T17:28:51.734Z,12.00
2019-04-14T17:31:27.661Z,12.00
2019-04-14T17:34:03.541Z,11.90
2019-04-14T17:36:52.400Z,11.90
2019-04-14T17:39:35.904Z,12.00
2019-04-14T17:42:19.264Z,11.90
2019-04-14T17:45:06.488Z,11.90
2019-04-14T17:47:47.537Z,11.90
2019-04-14T17:50:40.648Z,11.90
2019-04-14T17:53:28.166Z,11.80
2019-04-14T17:56:15.747Z,11.80
2019-04-14T17:58:59.393Z,11.70
2019-04-14T18:01:58.968Z,11.70
2019-04-14T18:04:51.647Z,11.70
2019-04-14T18:07:51.995Z,11.70
2019-04-14T18:10:34.642Z,11.60
2019-04-14T18:13:26.180Z,11.60
2019-04-14T18:16:14.517Z,11.50
2019-04-14T18:19:22.649Z,11.50
2019-04-14T18:21:51.925Z,11.60
2019-04-14T18:24:21.071Z,11.50
2019-04-14T18:26:51.033Z,11.50
2019-04-14T18:29:31.161Z,11.50
2019-04-14T18:32:28.640Z,11.60
2019-04-14T18:35:29.207Z,11.50
2019-04-14T18:38:28.538Z,11.50
2019-04-14T18:41:15.035Z,11.50
2019-04-14T18:44:03.716Z,11.50
2019-04-14T18:46:50.950Z,11.40
2019-04-14T18:49:45.164Z,11.40
2019-04-14T18:52:48.857Z,11.50
2019-04-14T18:55:50.225Z,11.50
2019-04-14T18:58:39.826Z,11.50
2019-04-14T19:01:18.320Z,11.50
2019-04-14T19:03:51.238Z,11.40
2019-04-14T19:06:21.965Z,11.40
2019-04-14T19:08:53.291Z,11.40
2019-04-14T19:11:48.514Z,11.50
2019-04-14T19:14:23.018Z,11.50
2019-04-14T19:16:57.656Z,11.40
2019-04-14T19:19:31.764Z,11.40
2019-04-14T19:22:05.991Z,11.40
2019-04-14T19:24:35.995Z,11.30
2019-04-14T19:27:08.790Z,11.30
2019-04-14T19:29:42.561Z,11.30
2019-04-14T19:32:16.019Z,11.40
2019-04-14T19:34:48.348Z,11.40
2019-04-14T19:37:19.958Z,11.40
2019-04-14T19:39:52.217Z,11.40
2019-04-14T19:42:25.015Z,11.40
2019-04-14T19:44:58.797Z,11.40
2019-04-14T19:47:30.129Z,11.40
2019-04-14T19:50:01.955Z,11.30
2019-04-14T19:52:31.441Z,11.30
2019-04-14T19:55:01.159Z,11.30
2019-04-14T19:57:31.452Z,11.30
2019-04-14T20:00:02.253Z,11.30
2019-04-14T20:02:46.581Z,11.30
2019-04-14T20:05:20.339Z,11.30
2019-04-14T20:07:53.546Z,11.40
2019-04-14T20:10:25.389Z,11.40
2019-04-14T20:12:55.270Z,11.40
2019-04-14T20:15:35.428Z,11.30
2019-04-14T20:18:27.278Z,11.20
2019-04-14T20:21:23.381Z,11.20
2019-04-14T20:24:17.782Z,11.20
2019-04-14T20:27:09.928Z,11.20
2019-04-14T20:29:42.952Z,11.20
2019-04-14T20:32:17.608Z,11.20
2019-04-14T20:34:49.386Z,11.20
2019-04-14T20:37:20.651Z,11.10
2019-04-14T20:39:52.601Z,11.10
2019-04-14T20:42:23.131Z,11.10
2019-04-14T20:44:54.391Z,11.10
2019-04-14T20:47:25.511Z,11.10
2019-04-14T20:49:55.136Z,11.10
2019-04-14T20:52:26.499Z,11.10
2019-04-14T20:54:56.973Z,11.00
2019-04-14T20:57:30.278Z,11.00
2019-04-14T21:00:01.884Z,11.00
2019-04-14T21:02:58.305Z,11.00
2019-04-14T21:05:51.400Z,10.90
2019-04-14T21:08:55.288Z,10.90
2019-04-14T21:12:09.438Z,10.90
2019-04-14T21:14:52.929Z,10.90
2019-04-14T21:17:39.575Z,10.90
2019-04-14T21:20:27.683Z,10.90
2019-04-14T21:23:09.787Z,10.80
2019-04-14T21:26:01.199Z,10.80
2019-04-14T21:28:52.935Z,10.80
2019-04-14T21:31:38.897Z,10.80
2019-04-14T21:34:27.759Z,10.80
2019-04-14T21:37:08.563Z,10.80
2019-04-14T21:39:44.348Z,10.70
2019-04-14T21:42:15.642Z,10.70
2019-04-14T21:44:46.331Z,10.70
2019-04-14T21:47:16.378Z,10.70
2019-04-14T21:49:47.354Z,10.70
2019-04-14T21:52:32.412Z,10.70
2019-04-14T21:55:02.724Z,10.70
2019-04-14T21:57:45.028Z,10.70
2019-04-14T22:00:27.903Z,10.70
2019-04-14T22:03:23.884Z,10.60
2019-04-14T22:06:05.460Z,10.60
2019-04-14T22:08:39.312Z,10.50
2019-04-14T22:11:12.003Z,10.50
2019-04-14T22:13:41.194Z,10.50
2019-04-14T22:16:10.670Z,10.50
2019-04-14T22:18:40.510Z,10.50
2019-04-14T22:21:11.353Z,10.50
2019-04-14T22:23:43.062Z,10.50
2019-04-14T22:26:25.170Z,10.50
2019-04-14T22:28:44.064Z,10.60
2019-04-14T22:31:13.364Z,10.50
2019-04-14T22:33:42.847Z,10.50
2019-04-14T22:36:13.292Z,10.50
2019-04-14T22:38:44.345Z,10.50
2019-04-14T22:41:31.624Z,10.50
2019-04-14T22:44:01.669Z,10.40
2019-04-14T22:46:32.058Z,10.40
2019-04-14T22:49:01.308Z,10.40
2019-04-14T22:51:30.666Z,10.40
2019-04-14T22:53:59.946Z,10.40
2019-04-14T22:56:39.113Z,10.40
2019-04-14T22:59:02.274Z,10.30
2019-04-14T23:01:33.912Z,10.30
2019-04-14T23:04:40.456Z,10.30
2019-04-14T23:07:29.856Z,10.30
2019-04-14T23:10:11.169Z,10.30
2019-04-14T23:12:49.522Z,10.30
2019-04-14T23:15:35.336Z,10.30
2019-04-14T23:18:39.340Z,10.20
2019-04-14T23:21:27.692Z,10.20
2019-04-14T23:24:13.734Z,10.20
2019-04-14T23:26:52.313Z,10.20
2019-04-14T23:29:14.317Z,10.20
2019-04-14T23:31:44.026Z,10.20
2019-04-14T23:34:24.821Z,10.20
2019-04-14T23:36:54.594Z,10.20
2019-04-14T23:39:25.813Z,10.20
2019-04-14T23:41:58.038Z,10.10
2019-04-14T23:44:27.434Z,10.10
2019-04-14T23:46:56.522Z,10.10
2019-04-14T23:49:26.254Z,10.10
2019-04-14T23:51:56.233Z,10.10
2019-04-14T23:54:25.314Z,10.10
2019-04-14T23:57:04.779Z,10.10
2019-04-14T23:59:25.584Z,10.10
